Weather History for Glenwood, MN

Change the Weather History Date:

Thursday, July 4, 2013

  Actual Average Record
Temperature  
Mean Temperature 73 °F -  
Max Temperature 87 °F 80 °F 96 °F (1988)
Min Temperature 59 °F 57 °F 40 °F (1967)
Cooling Degree Days 8    
Growing Degree Days 23 (Base 50)    
Moisture  
Dew Point 56 °F    
Average Humidity 55    
Maximum Humidity 88    
Minimum Humidity 31    
Precipitation  
Precipitation 0.00 in - - ()
Sea Level Pressure  
Sea Level Pressure 29.88 in    
Wind  
Wind Speed 9 mph (SSE)    
Max Wind Speed 21 mph    
Max Gust Speed 26 mph    
Visibility 10 miles    
Events      
Averages and records for this station are not official NWS values.
T = Trace of Precipitation, MM = Missing Value Source: NWS Daily Summary

Daily Weather History Graph

Daily Weather History Graph

Search for Another Location

Airport:

Trip Planner

Search our weather history database for the weather conditions in past years. The results will help you decide how hot, cold, wet, or windy it might be!

Date:

Astronomy

Jul. 04, 2013 Rise Set
Actual Time 5:37 AM CDT 9:13 PM CDT
Civil Twilight 5:00 AM CDT 9:50 PM CDT
Nautical Twilight 4:10 AM CDT 10:40 PM CDT
Astronomical Twilight 3:03 AM CDT 11:47 PM CDT
Moon 2:59 AM CDT (7/4) 6:15 PM CDT (7/4)
Length of Visible Light 16h 50m
Length of Day
15h 35m
Waning Crescent, 11% of the Moon is Illuminated
Jul 4
Waning Crescent
Jul 8
New
Jul 15
First Quarter
Jul 22
Full
Jul 29
Last Quarter

Hourly Weather History & Observations

Time (CDT) Temp. Heat Index Dew Point Humidity Pressure Visibility Wind Dir Wind Speed Gust Speed Precip Events Conditions
12:01 AM 64.4 °F - 55.4 °F 73% 29.96 in 10.0 mi SE 5.8 mph - N/A   Clear
12:21 AM 62.6 °F - 55.4 °F 77% 29.96 in 10.0 mi SE 5.8 mph - N/A   Clear
12:41 AM 62.6 °F - 55.4 °F 77% 29.96 in 10.0 mi SE 5.8 mph - N/A   Clear
1:01 AM 62.6 °F - 55.4 °F 77% 29.95 in 10.0 mi SE 6.9 mph - N/A   Clear
1:21 AM 62.6 °F - 55.4 °F 77% 29.95 in 10.0 mi SSE 5.8 mph - N/A   Clear
1:41 AM 62.6 °F - 55.4 °F 77% 29.95 in 4.0 mi SE 4.6 mph - N/A   Clear
2:21 AM 60.8 °F - 55.4 °F 82% 29.95 in 7.0 mi SE 5.8 mph - N/A   Clear
2:41 AM 60.8 °F - 55.4 °F 82% 29.94 in 10.0 mi ESE 5.8 mph - N/A   Scattered Clouds
3:01 AM 60.8 °F - 55.4 °F 82% 29.94 in 10.0 mi ESE 4.6 mph - N/A   Scattered Clouds
3:21 AM 62.6 °F - 55.4 °F 77% 29.94 in 10.0 mi ESE 5.8 mph - N/A   Mostly Cloudy
3:41 AM 62.6 °F - 53.6 °F 72% 29.93 in 10.0 mi ESE 4.6 mph - N/A   Scattered Clouds
4:01 AM 60.8 °F - 53.6 °F 77% 29.93 in 10.0 mi ESE 5.8 mph - N/A   Scattered Clouds
4:21 AM 60.8 °F - 53.6 °F 77% 29.93 in 10.0 mi ESE 4.6 mph - N/A   Clear
4:41 AM 60.8 °F - 53.6 °F 77% 29.93 in 10.0 mi ESE 4.6 mph - N/A   Clear
5:01 AM 59.0 °F - 55.4 °F 88% 29.93 in 10.0 mi SE 4.6 mph - N/A   Clear
5:41 AM 59.0 °F - 53.6 °F 82% 29.93 in 10.0 mi SE 4.6 mph - N/A   Clear
6:21 AM 59.0 °F - 55.4 °F 88% 29.93 in 10.0 mi SE 3.5 mph - N/A   Clear
6:41 AM 60.8 °F - 55.4 °F 82% 29.93 in 10.0 mi SE 3.5 mph - N/A   Clear
7:01 AM 62.6 °F - 55.4 °F 77% 29.92 in 10.0 mi SE 3.5 mph - N/A   Clear
7:21 AM 64.4 °F - 57.2 °F 77% 29.92 in 10.0 mi SSE 2.3 mph - N/A   Clear
7:41 AM 66.2 °F - 57.2 °F 73% 29.93 in 10.0 mi South 2.3 mph - N/A   Clear
8:01 AM 69.8 °F - 59.0 °F 68% 29.93 in 10.0 mi South 2.3 mph - N/A   Clear
8:41 AM 73.4 °F - 59.0 °F 61% 29.91 in 10.0 mi South 6.9 mph - N/A   Clear
9:01 AM 73.4 °F - 59.0 °F 61% 29.91 in 10.0 mi South 9.2 mph - N/A   Clear
9:21 AM 75.2 °F - 59.0 °F 57% 29.91 in 10.0 mi South 6.9 mph - N/A   Clear
9:41 AM 75.2 °F - 59.0 °F 57% 29.91 in 10.0 mi South 9.2 mph - N/A   Scattered Clouds
10:01 AM 75.2 °F - 59.0 °F 57% 29.90 in 10.0 mi SSE 9.2 mph - N/A   Scattered Clouds
10:21 AM 78.8 °F - 60.8 °F 54% 29.90 in 10.0 mi South 12.7 mph 16.1 mph N/A   Clear
10:41 AM 80.6 °F 81.1 °F 59.0 °F 48% 29.89 in 10.0 mi South 12.7 mph 17.3 mph N/A   Clear
11:01 AM 80.6 °F 80.8 °F 57.2 °F 45% 29.89 in 10.0 mi South 12.7 mph - N/A   Clear
11:21 AM 82.4 °F 82.0 °F 57.2 °F 42% 29.89 in 10.0 mi South 16.1 mph 19.6 mph N/A   Clear
11:41 AM 82.4 °F 82.0 °F 57.2 °F 42% 29.89 in 10.0 mi South 17.3 mph 20.7 mph N/A   Clear
12:01 PM 82.4 °F 82.0 °F 57.2 °F 42% 29.88 in 10.0 mi SSE 16.1 mph 19.6 mph N/A   Clear
12:41 PM 84.2 °F 83.0 °F 55.4 °F 37% 29.88 in 10.0 mi South 18.4 mph - N/A   Clear
1:01 PM 86.0 °F 84.9 °F 57.2 °F 37% 29.87 in 10.0 mi South 13.8 mph - N/A   Clear
1:21 PM 86.0 °F 84.5 °F 55.4 °F 35% 29.87 in 10.0 mi South 17.3 mph 23.0 mph N/A   Clear
1:41 PM 87.8 °F 86.1 °F 55.4 °F 33% 29.87 in 10.0 mi South 17.3 mph 26.5 mph N/A   Clear
2:01 PM 87.8 °F 86.1 °F 55.4 °F 33% 29.86 in 10.0 mi South 16.1 mph 26.5 mph N/A   Clear
2:21 PM 87.8 °F 85.7 °F 53.6 °F 31% 29.86 in 10.0 mi South 19.6 mph - N/A   Clear
3:01 PM 87.8 °F 85.7 °F 53.6 °F 31% 29.85 in 10.0 mi South 17.3 mph 26.5 mph N/A   Clear
3:21 PM 86.0 °F 84.2 °F 53.6 °F 33% 29.85 in 10.0 mi South 20.7 mph 25.3 mph N/A   Clear
3:41 PM 86.0 °F 84.2 °F 53.6 °F 33% 29.84 in 10.0 mi South 17.3 mph 25.3 mph N/A   Clear
4:01 PM 87.8 °F 86.1 °F 55.4 °F 33% 29.85 in 10.0 mi South 15.0 mph 20.7 mph N/A   Clear
4:21 PM 87.8 °F 85.7 °F 53.6 °F 31% 29.84 in 10.0 mi South 17.3 mph 24.2 mph N/A   Clear
4:41 PM 87.8 °F 85.7 °F 53.6 °F 31% 29.84 in 10.0 mi South 20.7 mph 24.2 mph N/A   Clear
5:01 PM 87.8 °F 86.1 °F 55.4 °F 33% 29.84 in 10.0 mi South 18.4 mph 21.9 mph N/A   Clear
5:21 PM 87.8 °F 86.1 °F 55.4 °F 33% 29.83 in 10.0 mi South 18.4 mph 24.2 mph N/A   Clear
5:41 PM 86.0 °F 84.2 °F 53.6 °F 33% 29.83 in 10.0 mi South 16.1 mph 25.3 mph N/A   Clear
6:01 PM 84.2 °F 83.0 °F 55.4 °F 37% 29.83 in 10.0 mi South 13.8 mph - N/A   Clear
6:21 PM 84.2 °F 83.0 °F 55.4 °F 37% 29.83 in 10.0 mi South 10.4 mph - N/A   Clear
6:41 PM 82.4 °F 81.7 °F 55.4 °F 39% 29.82 in 10.0 mi South 12.7 mph 17.3 mph N/A   Clear
7:01 PM 82.4 °F 81.7 °F 55.4 °F 39% 29.83 in 10.0 mi South 12.7 mph - N/A   Clear
7:21 PM 80.6 °F 80.8 °F 57.2 °F 45% 29.82 in 10.0 mi South 9.2 mph - N/A   Clear
7:41 PM 80.6 °F 80.8 °F 57.2 °F 45% 29.82 in 10.0 mi South 8.1 mph - N/A   Clear
8:01 PM 80.6 °F 80.8 °F 57.2 °F 45% 29.82 in 10.0 mi South 11.5 mph - N/A   Clear
8:21 PM 80.6 °F 80.8 °F 57.2 °F 45% 29.82 in 10.0 mi South 9.2 mph - N/A   Clear
8:41 PM 80.6 °F 80.8 °F 57.2 °F 45% 29.82 in 10.0 mi South 10.4 mph - N/A   Clear
9:01 PM 77.0 °F - 57.2 °F 50% 29.82 in 10.0 mi South 9.2 mph - N/A   Clear
9:21 PM 75.2 °F - 57.2 °F 53% 29.82 in 10.0 mi South 8.1 mph - N/A   Clear
9:41 PM 75.2 °F - 57.2 °F 53% 29.83 in 10.0 mi SSE 8.1 mph - N/A   Clear
10:21 PM 73.4 °F - 57.2 °F 57% 29.84 in 10.0 mi SSE 8.1 mph - N/A   Clear
10:41 PM 73.4 °F - 57.2 °F 57% 29.84 in 10.0 mi SSE 9.2 mph - N/A   Clear
11:01 PM 73.4 °F - 57.2 °F 57% 29.85 in 10.0 mi South 9.2 mph - N/A   Clear
11:21 PM 75.2 °F - 57.2 °F 53% 29.84 in 10.0 mi South 11.5 mph - N/A   Clear
11:41 PM 75.2 °F - 57.2 °F 53% 29.84 in 10.0 mi South 10.4 mph - N/A   Clear